Time;durP1;ratioP1;P1;durP2;ratioP2;P2;SDS_P1;SDS_P2;PMS_P1;PMS_P2;Temp;Humidity;BMP_temperature;BMP_pressure;BME280_temperature;BME280_humidity;BME280_pressure;Samples;Min_cycle;Max_cycle;Signal;HPM_P1;HPM_P2
2022/03/01 00:01:04;;;;;;;23.73;15.35;;;;;;;-0.49;61.72;95869.28;5070364;28;20044;-58
2022/03/01 00:03:30;;;;;;;23.90;15.07;;;;;;;-0.67;62.79;95845.78;5070277;28;20063;-59
2022/03/01 00:05:55;;;;;;;25.27;16.42;;;;;;;-0.50;63.18;95882.84;5070007;28;20032;-59
2022/03/01 00:08:21;;;;;;;26.38;16.50;;;;;;;-0.47;63.24;95877.75;5069802;28;20036;-66
2022/03/01 00:10:46;;;;;;;26.85;17.25;;;;;;;-0.53;62.43;95878.59;5069436;28;20032;-59
2022/03/01 00:13:11;;;;;;;27.73;17.40;;;;;;;-0.56;63.74;95874.41;5070057;28;20033;-60
2022/03/01 00:15:37;;;;;;;26.63;18.25;;;;;;;-0.59;63.35;95866.84;5069995;28;20090;-61
2022/03/01 00:18:03;;;;;;;27.35;18.02;;;;;;;-0.82;63.47;95830.66;5070209;28;20032;-59
2022/03/01 00:20:28;;;;;;;30.98;16.92;;;;;;;-0.81;63.44;95839.94;5070143;28;20028;-59
2022/03/01 00:22:54;;;;;;;30.02;17.63;;;;;;;-0.65;64.32;95871.94;5069413;28;20031;-59
2022/03/01 00:25:19;;;;;;;27.30;17.23;;;;;;;-0.60;63.96;95862.59;5069556;28;20028;-58
2022/03/01 00:27:45;;;;;;;26.88;17.17;;;;;;;-0.66;63.44;95857.56;5069800;28;20162;-61
2022/03/01 00:30:11;;;;;;;26.30;15.35;;;;;;;-0.78;64.38;95853.41;5069572;28;20397;-58
2022/03/01 00:32:37;;;;;;;28.52;16.40;;;;;;;-1.02;65.21;95825.69;5069671;28;20020;-62
2022/03/01 00:35:03;;;;;;;23.67;14.55;;;;;;;-0.90;65.35;95850.09;5069153;28;20032;-61
2022/03/01 00:37:28;;;;;;;20.60;13.20;;;;;;;-0.93;65.59;95851.81;5069439;28;20028;-57
2022/03/01 00:39:54;;;;;;;20.30;11.52;;;;;;;-0.94;65.25;95846.75;5069268;28;20028;-62
2022/03/01 00:42:19;;;;;;;13.38;9.35;;;;;;;-1.06;64.93;95840.06;5069126;28;20500;-59
2022/03/01 00:44:45;;;;;;;13.23;10.20;;;;;;;-0.95;65.24;95848.44;5050734;28;20044;-61
2022/03/01 00:47:10;;;;;;;12.73;8.43;;;;;;;-0.96;64.57;95845.91;5068773;28;20031;-60
2022/03/01 00:49:35;;;;;;;12.73;8.48;;;;;;;-1.01;64.23;95847.63;5069459;28;20033;-57
2022/03/01 00:52:01;;;;;;;11.43;7.53;;;;;;;-1.24;64.59;95799.66;5069118;28;20024;-62
2022/03/01 00:54:26;;;;;;;9.65;6.30;;;;;;;-1.09;63.79;95808.84;5068927;28;20024;-63
2022/03/01 00:56:52;;;;;;;9.85;6.43;;;;;;;-1.00;63.76;95834.97;5068861;28;20044;-59
2022/03/01 00:59:17;;;;;;;8.73;6.00;;;;;;;-1.18;64.64;95814.78;5068424;28;20035;-59
2022/03/01 01:01:43;;;;;;;7.75;5.55;;;;;;;-1.16;64.31;95816.47;5068584;28;20079;-58
2022/03/01 01:04:08;;;;;;;10.95;6.63;;;;;;;-1.38;64.74;95800.53;5068898;28;20028;-62
2022/03/01 01:06:34;;;;;;;11.77;6.95;;;;;;;-1.24;64.98;95817.38;5068879;28;20086;-58
2022/03/01 01:08:59;;;;;;;9.27;6.38;;;;;;;-1.16;65.08;95821.53;5068692;28;20060;-61
2022/03/01 01:11:25;;;;;;;9.80;6.32;;;;;;;-1.26;64.48;95813.97;5068505;28;20017;-64
2022/03/01 01:13:50;;;;;;;9.40;6.03;;;;;;;-1.50;64.32;95798.88;5068774;28;20063;-60
2022/03/01 01:16:16;;;;;;;6.82;5.28;;;;;;;-1.26;64.63;95839.28;5068536;28;20052;-59
2022/03/01 01:18:43;;;;;;;7.95;5.88;;;;;;;-1.40;65.27;95830.06;5067922;28;20479;-59
2022/03/01 01:21:11;;;;;;;8.18;5.30;;;;;;;-1.52;65.74;95822.53;5068729;28;20029;-63
2022/03/01 01:23:36;;;;;;;9.50;5.72;;;;;;;-1.59;66.49;95826.75;5068278;28;20411;-55
2022/03/01 01:26:02;;;;;;;7.63;5.47;;;;;;;-1.53;66.59;95823.34;5068370;28;20036;-63
2022/03/01 01:28:27;;;;;;;7.15;5.22;;;;;;;-1.45;66.87;95836.81;5068401;28;20066;-61
2022/03/01 01:30:53;;;;;;;8.48;5.55;;;;;;;-1.45;66.74;95834.28;5068437;28;20028;-56
2022/03/01 01:33:18;;;;;;;8.55;5.65;;;;;;;-1.44;66.41;95830.94;5050207;28;20033;-58
2022/03/01 01:35:44;;;;;;;7.65;5.60;;;;;;;-1.44;66.13;95833.47;5067918;28;20055;-59
2022/03/01 01:38:09;;;;;;;7.30;5.63;;;;;;;-1.56;66.93;95810.72;5068415;28;20036;-60
2022/03/01 01:40:35;;;;;;;7.80;5.53;;;;;;;-1.67;66.24;95798.13;5068177;28;20042;-59
2022/03/01 01:43:02;;;;;;;18.15;7.22;;;;;;;-1.56;66.29;95824.22;5068003;28;20040;-59
2022/03/01 01:45:28;;;;;;;7.72;5.43;;;;;;;-1.51;65.76;95814.06;5067978;28;20028;-62
2022/03/01 01:47:55;;;;;;;6.95;5.55;;;;;;;-1.71;66.61;95783.78;5067897;28;20027;-65
2022/03/01 01:50:22;;;;;;;8.50;5.20;;;;;;;-1.71;66.36;95788.84;5068173;28;20029;-58
2022/03/01 01:52:49;;;;;;;8.27;5.07;;;;;;;-1.58;66.54;95813.25;5068087;28;20032;-61
2022/03/01 01:55:17;;;;;;;8.45;5.88;;;;;;;-1.85;66.38;95773.72;5067941;28;20036;-59
2022/03/01 01:57:42;;;;;;;9.13;5.63;;;;;;;-1.73;67.08;95803.19;5067278;28;20036;-62
2022/03/01 02:00:10;;;;;;;7.07;5.35;;;;;;;-1.77;66.99;95789.72;5067833;28;20082;-60
2022/03/01 02:02:36;;;;;;;7.57;5.57;;;;;;;-1.62;66.78;95809.06;5068008;28;20120;-61
2022/03/01 02:05:02;;;;;;;7.32;5.45;;;;;;;-1.61;66.26;95808.19;5068206;28;20484;-65
2022/03/01 02:07:28;;;;;;;9.40;5.57;;;;;;;-1.54;65.66;95809.88;5068059;28;20075;-57
2022/03/01 02:09:53;;;;;;;7.47;5.40;;;;;;;-1.42;65.71;95809.00;5067547;28;20020;-66
2022/03/01 02:12:19;;;;;;;10.70;6.20;;;;;;;-1.69;66.48;95777.03;5067935;28;20017;-57
2022/03/01 02:14:44;;;;;;;7.63;5.70;;;;;;;-1.57;66.65;95792.19;5067871;28;20703;-57
2022/03/01 02:17:10;;;;;;;10.27;5.72;;;;;;;-1.46;66.63;95802.25;5067841;28;20538;-56
2022/03/01 02:19:37;;;;;;;9.05;5.97;;;;;;;-1.54;66.12;95793.84;5067715;28;20029;-57
2022/03/01 02:22:06;;;;;;;9.35;6.28;;;;;;;-1.67;66.77;95773.66;5067496;28;20480;-58
2022/03/01 02:24:32;;;;;;;13.05;7.82;;;;;;;-1.68;66.83;95769.44;5067799;28;20086;-58
2022/03/01 02:27:03;;;;;;;20.02;12.10;;;;;;;-1.52;67.11;95771.94;5067876;28;20036;-62
2022/03/01 02:29:29;;;;;;;24.08;14.73;;;;;;;-1.40;66.31;95771.88;5068173;28;20032;-60
2022/03/01 02:31:57;;;;;;;23.08;14.85;;;;;;;-1.40;66.91;95763.44;5071832;28;20044;-63
2022/03/01 02:34:24;;;;;;;24.35;15.50;;;;;;;-1.48;66.52;95748.28;5071620;28;20021;-56
2022/03/01 02:36:50;;;;;;;25.27;15.27;;;;;;;-1.49;66.74;95756.75;5072150;28;20024;-56
2022/03/01 02:39:15;;;;;;;23.55;14.68;;;;;;;-1.80;67.13;95716.41;5071599;28;20475;-58
2022/03/01 02:41:43;;;;;;;25.20;15.23;;;;;;;-1.63;67.68;95758.47;5053732;28;20442;-59
2022/03/01 02:44:10;;;;;;;25.33;15.52;;;;;;;-2.13;67.42;95671.84;5071442;28;20024;-61
2022/03/01 02:46:36;;;;;;;22.15;14.80;;;;;;;-1.79;67.88;95734.94;5070976;28;20501;-57
2022/03/01 02:49:02;;;;;;;21.95;14.93;;;;;;;-1.67;67.98;95737.44;5071522;28;20020;-55
2022/03/01 02:51:28;;;;;;;28.10;16.42;;;;;;;-1.80;68.65;95718.94;5071470;28;20020;-57
2022/03/01 02:53:54;;;;;;;27.00;16.63;;;;;;;-1.62;69.19;95755.09;5053330;28;20035;-58
2022/03/01 02:56:20;;;;;;;24.42;15.18;;;;;;;-1.58;69.36;95777.00;5071237;28;20029;-55
2022/03/01 02:58:45;;;;;;;24.77;15.60;;;;;;;-1.71;68.98;95771.97;5070885;28;20063;-56
2022/03/01 03:01:11;;;;;;;26.50;15.75;;;;;;;-2.03;69.58;95740.06;5071135;28;20029;-59
2022/03/01 03:03:36;;;;;;;26.00;16.65;;;;;;;-1.81;69.86;95775.38;5071065;28;20024;-55
2022/03/01 03:06:02;;;;;;;26.42;16.25;;;;;;;-1.82;69.71;95777.91;5071410;28;20038;-57
2022/03/01 03:08:28;;;;;;;26.02;17.65;;;;;;;-1.86;69.96;95772.03;5071113;28;20020;-60
2022/03/01 03:10:54;;;;;;;20.02;12.35;;;;;;;-1.95;69.44;95749.28;5070646;28;20023;-67
2022/03/01 03:13:20;;;;;;;19.20;12.32;;;;;;;-1.89;68.27;95761.91;5071103;28;20024;-61
2022/03/01 03:15:47;;;;;;;24.13;13.77;;;;;;;-1.76;68.39;95778.72;5071004;28;20036;-58
2022/03/01 03:18:13;;;;;;;22.98;14.65;;;;;;;-1.75;68.21;95784.66;5070921;28;20029;-57
2022/03/01 03:20:38;;;;;;;19.40;13.52;;;;;;;-1.75;67.63;95762.72;5070884;28;20032;-61
2022/03/01 03:23:04;;;;;;;20.88;12.32;;;;;;;-1.71;67.01;95750.91;5070477;28;20017;-58
2022/03/01 03:25:29;;;;;;;11.25;7.57;;;;;;;-1.53;66.74;95780.34;5070667;28;20039;-58
2022/03/01 03:27:55;;;;;;;10.55;6.82;;;;;;;-1.55;66.05;95777.81;5070690;28;20082;-56
2022/03/01 03:30:20;;;;;;;10.57;6.93;;;;;;;-1.55;65.25;95787.13;5070794;28;20039;-57
2022/03/01 03:32:46;;;;;;;11.93;7.22;;;;;;;-1.49;65.11;95784.56;5070792;28;20113;-67
2022/03/01 03:35:11;;;;;;;13.27;8.10;;;;;;;-1.50;65.12;95765.16;5070091;28;20271;-60
2022/03/01 03:37:37;;;;;;;11.73;8.48;;;;;;;-1.79;65.63;95720.59;5070635;28;20039;-55
2022/03/01 03:40:03;;;;;;;12.32;8.00;;;;;;;-1.40;65.63;95797.16;5070635;28;20033;-61
2022/03/01 03:42:29;;;;;;;11.18;7.35;;;;;;;-1.64;65.60;95760.19;5069581;28;20551;-66
2022/03/01 03:44:55;;;;;;;10.07;6.25;;;;;;;-1.49;65.61;95787.09;5070474;28;20029;-57
2022/03/01 03:47:20;;;;;;;9.95;7.10;;;;;;;-1.58;65.87;95792.19;5070060;28;20476;-60
2022/03/01 03:49:47;;;;;;;11.73;7.38;;;;;;;-1.58;66.54;95793.00;5070363;28;20519;-62
2022/03/01 03:52:12;;;;;;;17.40;10.85;;;;;;;-1.52;66.06;95792.16;5070206;28;20178;-61
2022/03/01 03:54:38;;;;;;;22.30;12.98;;;;;;;-1.52;67.17;95782.06;5070118;28;20111;-59
2022/03/01 03:57:08;;;;;;;22.90;14.52;;;;;;;-1.70;67.35;95781.25;5070257;28;20036;-63
2022/03/01 03:59:37;;;;;;;27.17;17.83;;;;;;;-1.62;67.89;95791.34;5069620;28;20021;-68
2022/03/01 04:02:04;;;;;;;24.02;16.08;;;;;;;-1.81;67.90;95772.03;5070281;28;20722;-63
2022/03/01 04:04:30;;;;;;;24.15;15.45;;;;;;;-1.88;68.62;95783.84;5070076;28;20400;-63
2022/03/01 04:06:55;;;;;;;26.17;16.85;;;;;;;-1.92;68.37;95783.00;5070012;28;20032;-59
2022/03/01 04:09:21;;;;;;;25.45;16.38;;;;;;;-2.08;69.15;95767.03;5070112;28;20086;-59
2022/03/01 04:11:46;;;;;;;29.88;16.75;;;;;;;-2.10;69.79;95788.06;5069672;28;20024;-60
2022/03/01 04:14:12;;;;;;;26.35;15.65;;;;;;;-2.30;69.89;95756.09;5070016;28;20024;-56
2022/03/01 04:16:38;;;;;;;21.35;14.45;;;;;;;-2.08;69.97;95782.19;5069741;28;20060;-68
2022/03/01 04:19:04;;;;;;;22.10;13.63;;;;;;;-2.29;69.30;95760.31;5069728;28;20696;-70
2022/03/01 04:21:29;;;;;;;22.05;14.40;;;;;;;-2.21;69.37;95770.41;5069769;28;20036;-69
2022/03/01 04:23:55;;;;;;;22.05;13.77;;;;;;;-2.19;69.91;95783.06;5069419;28;20582;-69
2022/03/01 04:26:23;;;;;;;24.73;15.10;;;;;;;-2.47;70.31;95742.66;5069788;28;20055;-55
2022/03/01 04:28:48;;;;;;;23.42;13.05;;;;;;;-2.15;69.36;95788.06;5069700;28;20029;-58
2022/03/01 04:31:14;;;;;;;18.17;12.40;;;;;;;-2.24;69.18;95775.47;5069643;28;20024;-58
2022/03/01 04:33:39;;;;;;;21.02;12.55;;;;;;;-2.27;69.00;95775.47;5069080;28;20032;-68
2022/03/01 04:36:06;;;;;;;21.60;13.32;;;;;;;-2.29;69.32;95787.28;5069535;28;20024;-57
2022/03/01 04:38:32;;;;;;;21.48;12.95;;;;;;;-2.56;69.36;95748.53;5069379;28;20029;-63
2022/03/01 04:40:58;;;;;;;22.52;13.55;;;;;;;-2.63;69.22;95742.63;5069428;28;20142;-60
2022/03/01 04:43:24;;;;;;;25.13;13.98;;;;;;;-2.48;68.04;95767.03;5069126;28;20059;-57
2022/03/01 04:45:50;;;;;;;19.35;13.77;;;;;;;-2.33;68.64;95791.47;5069168;28;20017;-59
2022/03/01 04:48:15;;;;;;;21.38;14.68;;;;;;;-2.27;67.70;95801.56;5069303;28;20047;-57
2022/03/01 04:50:41;;;;;;;21.13;12.73;;;;;;;-2.41;67.63;95766.22;5068917;28;20029;-53
2022/03/01 04:53:06;;;;;;;19.73;13.10;;;;;;;-2.16;67.29;95801.56;5068631;28;20040;-62
2022/03/01 04:55:33;;;;;;;21.98;14.07;;;;;;;-2.18;67.37;95802.41;5068866;28;20703;-58
2022/03/01 04:57:58;;;;;;;20.55;13.63;;;;;;;-2.13;67.42;95803.22;5068745;28;20060;-64
2022/03/01 05:00:25;;;;;;;22.08;12.75;;;;;;;-2.37;67.25;95774.63;5068837;28;20133;-61
2022/03/01 05:02:51;;;;;;;22.83;12.70;;;;;;;-3.08;67.29;95680.38;5069093;28;20024;-57
2022/03/01 05:05:16;;;;;;;23.42;13.23;;;;;;;-2.40;68.01;95800.72;5068875;28;20028;-53
2022/03/01 05:07:47;;;;;;;24.83;17.08;;;;;;;-2.49;68.50;95804.94;5068723;28;20078;-57
2022/03/01 05:10:17;;;;;;;23.98;14.88;;;;;;;-2.59;68.86;95804.94;5068165;28;20028;-59
2022/03/01 05:12:52;;;;;;;19.38;12.82;;;;;;;-2.58;68.92;95811.66;5060558;28;20102;-59
2022/03/01 05:15:27;;;;;;;32.83;16.10;;;;;;;-2.59;68.67;95812.53;5065377;28;20781;-63
2022/03/01 05:17:54;;;;;;;19.73;12.95;;;;;;;-2.78;69.36;95798.19;5065379;28;20033;-58
2022/03/01 05:20:21;;;;;;;19.17;12.70;;;;;;;-2.92;69.52;95805.72;5047724;28;20428;-56
2022/03/01 05:22:47;;;;;;;20.52;12.98;;;;;;;-3.05;70.15;95784.69;5045138;28;20037;-58
2022/03/01 05:25:19;;;;;;;16.60;10.90;;;;;;;-2.91;69.43;95811.63;5045172;28;20535;-58
2022/03/01 05:27:46;;;;;;;16.27;10.82;;;;;;;-2.97;69.51;95793.13;5045289;28;20033;-59
2022/03/01 05:30:15;;;;;;;17.10;10.80;;;;;;;-2.95;69.56;95788.06;5045378;28;20033;-62
2022/03/01 05:32:43;;;;;;;19.17;10.43;;;;;;;-2.77;69.64;95818.38;5044883;28;20463;-57
2022/03/01 05:35:09;;;;;;;14.32;9.80;;;;;;;-2.81;69.69;95804.06;5044753;28;20536;-57
2022/03/01 05:37:36;;;;;;;18.83;10.48;;;;;;;-2.56;68.48;95809.13;5045212;28;20035;-57
2022/03/01 05:40:04;;;;;;;15.15;9.65;;;;;;;-2.58;67.54;95775.47;5045265;28;20049;-60
2022/03/01 05:42:29;;;;;;;12.68;8.63;;;;;;;-2.39;66.92;95796.53;5044811;28;20029;-58
2022/03/01 05:44:55;;;;;;;13.48;8.45;;;;;;;-2.29;66.36;95822.63;5044648;28;20091;-58
2022/03/01 05:47:21;;;;;;;13.48;8.30;;;;;;;-2.32;66.93;95818.41;5049174;28;20090;-56
2022/03/01 05:49:47;;;;;;;12.80;8.23;;;;;;;-2.44;66.88;95803.28;5046331;28;20044;-59
2022/03/01 05:52:12;;;;;;;14.88;10.30;;;;;;;-2.59;67.50;95768.75;5054156;28;20021;-54
2022/03/01 05:54:38;;;;;;;12.75;8.95;;;;;;;-2.42;67.44;95794.84;5055029;28;20033;-54
2022/03/01 05:57:03;;;;;;;13.02;7.97;;;;;;;-2.18;66.86;95826.00;5052758;28;20018;-56
2022/03/01 05:59:29;;;;;;;14.40;8.70;;;;;;;-2.30;66.43;95798.22;5058138;28;20086;-60
2022/03/01 06:01:54;;;;;;;15.10;8.70;;;;;;;-2.18;66.74;95794.81;5051801;28;20033;-55
2022/03/01 06:04:20;;;;;;;17.13;8.63;;;;;;;-1.81;65.52;95832.69;5041734;28;20044;-56
2022/03/01 06:06:45;;;;;;;15.30;10.02;;;;;;;-1.75;64.81;95820.88;5043241;28;20470;-56
2022/03/01 06:09:11;;;;;;;15.63;9.75;;;;;;;-1.57;65.40;95836.88;5049454;28;20049;-57
2022/03/01 06:11:36;;;;;;;14.10;8.98;;;;;;;-1.67;65.00;95814.13;5047232;28;20044;-59
2022/03/01 06:14:02;;;;;;;19.42;11.82;;;;;;;-1.45;64.89;95836.00;5040540;28;20057;-57
2022/03/01 06:16:27;;;;;;;19.33;9.68;;;;;;;-1.22;64.31;95846.03;5040254;28;20028;-58
2022/03/01 06:18:53;;;;;;;12.05;7.97;;;;;;;-1.02;63.49;95835.81;5041196;28;20793;-61
2022/03/01 06:21:19;;;;;;;10.25;6.80;;;;;;;-0.82;62.56;95835.72;5040539;28;20477;-59
2022/03/01 06:23:45;;;;;;;11.25;7.25;;;;;;;-0.71;61.88;95833.97;5048037;28;20040;-56
2022/03/01 06:26:11;;;;;;;10.93;7.15;;;;;;;-0.62;61.65;95836.44;5030975;28;20029;-58
2022/03/01 06:28:37;;;;;;;11.73;7.10;;;;;;;-0.42;60.21;95841.38;5027276;28;20065;-56
2022/03/01 06:31:02;;;;;;;12.48;7.57;;;;;;;-0.39;60.99;95818.56;5026825;28;20051;-57
2022/03/01 06:33:28;;;;;;;12.65;7.32;;;;;;;-0.25;60.39;95835.34;5027563;28;20099;-54
2022/03/01 06:35:53;;;;;;;10.32;7.43;;;;;;;-0.24;60.63;95834.50;5026652;28;20449;-58
2022/03/01 06:38:19;;;;;;;12.48;7.60;;;;;;;-0.26;60.30;95828.63;5029970;28;20025;-63
2022/03/01 06:40:44;;;;;;;9.57;6.75;;;;;;;-0.29;60.84;95815.97;5028294;28;20651;-64
2022/03/01 06:43:10;;;;;;;13.68;7.30;;;;;;;-0.25;60.60;95830.28;5027001;28;20090;-55
2022/03/01 06:45:35;;;;;;;9.73;7.25;;;;;;;-0.13;60.47;95821.72;5026107;28;20692;-57
2022/03/01 06:48:01;;;;;;;9.65;6.88;;;;;;;-0.60;59.70;95720.75;5026411;28;20029;-58
2022/03/01 06:50:26;;;;;;;8.10;6.13;;;;;;;-0.25;58.56;95744.09;5027966;28;20108;-57
2022/03/01 06:52:53;;;;;;;10.02;6.78;;;;;;;0.30;58.83;95817.09;5027099;28;20030;-59
2022/03/01 06:55:21;;;;;;;11.75;6.97;;;;;;;0.27;57.46;95773.19;5029321;28;20052;-57
2022/03/01 06:57:47;;;;;;;10.85;7.30;;;;;;;0.51;56.97;95782.22;5026019;28;20119;-57
2022/03/01 07:00:13;;;;;;;11.45;6.47;;;;;;;0.72;56.54;95796.34;5029229;28;20021;-56
2022/03/01 07:02:39;;;;;;;10.38;7.65;;;;;;;1.08;56.32;95823.00;5026866;28;20036;-59
2022/03/01 07:05:06;;;;;;;28.65;15.65;;;;;;;0.93;55.44;95781.72;5028240;28;20037;-57
2022/03/01 07:07:32;;;;;;;13.80;9.13;;;;;;;1.20;55.62;95813.53;5026326;28;20061;-59
2022/03/01 07:09:58;;;;;;;11.40;7.75;;;;;;;1.36;55.10;95819.22;5028761;28;20061;-58
2022/03/01 07:12:23;;;;;;;11.02;7.93;;;;;;;1.39;54.99;95814.94;5026759;28;20030;-58
2022/03/01 07:14:48;;;;;;;8.85;6.57;;;;;;;1.59;54.52;95818.88;5026044;28;20167;-61
2022/03/01 07:17:16;;;;;;;11.55;7.20;;;;;;;1.56;53.40;95799.44;5032669;28;20036;-61
2022/03/01 07:19:41;;;;;;;8.68;6.70;;;;;;;1.85;53.54;95831.19;5037129;28;20033;-59
2022/03/01 07:22:07;;;;;;;15.32;9.95;;;;;;;1.62;52.75;95789.19;5028241;28;20087;-58
2022/03/01 07:24:32;;;;;;;10.07;6.00;;;;;;;1.70;52.65;95818.72;5026610;28;20029;-59
2022/03/01 07:26:58;;;;;;;11.95;7.70;;;;;;;1.84;53.14;95830.38;5028482;28;20087;-59
2022/03/01 07:29:23;;;;;;;8.23;6.03;;;;;;;1.28;52.56;95723.63;5030609;28;20033;-60
2022/03/01 07:31:49;;;;;;;10.90;7.43;;;;;;;1.62;52.05;95799.38;5034629;28;20710;-59
2022/03/01 07:34:14;;;;;;;9.48;6.38;;;;;;;1.53;53.21;95808.84;5048239;28;20025;-63
2022/03/01 07:36:40;;;;;;;14.70;7.38;;;;;;;1.48;53.69;95801.28;5048054;28;20029;-62
2022/03/01 07:39:05;;;;;;;12.35;7.85;;;;;;;1.57;53.84;95806.19;5043077;28;20029;-56
2022/03/01 07:41:31;;;;;;;14.13;8.68;;;;;;;1.73;53.61;95823.78;5049036;28;20480;-61
2022/03/01 07:43:56;;;;;;;10.00;6.47;;;;;;;1.71;53.51;95821.25;5039937;28;20072;-58
2022/03/01 07:46:22;;;;;;;8.40;6.25;;;;;;;1.83;53.57;95826.13;5048378;28;20086;-57
2022/03/01 07:48:47;;;;;;;12.45;8.30;;;;;;;1.89;53.09;95817.59;5047559;28;20071;-60
2022/03/01 07:51:13;;;;;;;12.05;6.55;;;;;;;1.73;53.92;95805.97;5047704;28;20149;-57
2022/03/01 07:53:38;;;;;;;10.30;6.63;;;;;;;1.78;53.95;95814.38;5048907;28;20502;-59
2022/03/01 07:56:07;;;;;;;9.07;6.20;;;;;;;1.78;53.64;95809.28;5047854;28;20108;-58
2022/03/01 07:58:33;;;;;;;8.73;6.65;;;;;;;2.03;52.75;95814.78;5047957;28;20017;-60
2022/03/01 08:00:59;;;;;;;9.20;5.65;;;;;;;1.77;51.65;95757.59;5048930;28;20044;-61
2022/03/01 08:03:24;;;;;;;11.98;7.40;;;;;;;2.04;52.49;95815.66;5048684;28;20478;-61
2022/03/01 08:05:50;;;;;;;10.35;7.05;;;;;;;2.20;52.53;95819.63;5048588;28;20023;-59
2022/03/01 08:08:15;;;;;;;9.40;6.70;;;;;;;2.02;51.83;95763.09;5048756;28;20075;-64
2022/03/01 08:10:41;;;;;;;14.77;8.73;;;;;;;2.63;51.18;95818.00;5048296;28;20043;-60
2022/03/01 08:13:06;;;;;;;9.63;6.88;;;;;;;2.79;50.78;95810.88;5047881;28;20033;-62
2022/03/01 08:15:32;;;;;;;9.43;7.28;;;;;;;2.72;50.70;95793.19;5048226;28;20032;-65
2022/03/01 08:17:58;;;;;;;11.50;8.10;;;;;;;3.16;50.19;95803.31;5048683;28;20025;-62
2022/03/01 08:20:25;;;;;;;8.48;6.18;;;;;;;3.22;48.78;95800.66;5048544;28;20021;-61
2022/03/01 08:22:51;;;;;;;22.95;14.40;;;;;;;3.73;47.90;95814.81;5047609;28;20025;-57
2022/03/01 08:25:18;;;;;;;19.25;13.40;;;;;;;3.89;47.31;95811.88;5048397;28;20033;-59
2022/03/01 08:27:44;;;;;;;15.60;9.85;;;;;;;3.92;47.65;95806.72;5047899;28;20036;-58
2022/03/01 08:30:10;;;;;;;14.90;10.20;;;;;;;3.88;48.76;95812.78;5048244;28;20017;-66
2022/03/01 08:32:36;;;;;;;11.18;8.32;;;;;;;3.48;48.49;95782.22;5048337;28;20036;-59
2022/03/01 08:35:01;;;;;;;15.23;8.68;;;;;;;3.52;48.72;95818.69;5047338;28;20051;-64
2022/03/01 08:37:26;;;;;;;9.05;7.00;;;;;;;3.53;48.39;95817.00;5048170;28;20546;-61
2022/03/01 08:39:52;;;;;;;29.40;15.30;;;;;;;3.31;48.77;95815.75;5048090;28;20053;-60
2022/03/01 08:42:18;;;;;;;22.65;13.93;;;;;;;3.49;49.30;95821.31;5046416;28;20025;-62
2022/03/01 08:44:44;;;;;;;12.57;9.13;;;;;;;3.50;49.35;95825.53;5047705;28;20052;-65
2022/03/01 08:47:10;;;;;;;12.95;8.50;;;;;;;3.64;48.41;95803.13;5047940;28;20159;-59
2022/03/01 08:49:36;;;;;;;12.82;8.25;;;;;;;3.80;48.11;95790.81;5047685;28;20107;-60
2022/03/01 08:52:02;;;;;;;14.75;7.53;;;;;;;3.79;47.93;95770.47;5047066;28;20546;-59
2022/03/01 08:54:27;;;;;;;16.95;11.95;;;;;;;6.16;43.45;95809.75;5047581;28;20037;-63
2022/03/01 08:56:53;;;;;;;9.23;7.00;;;;;;;9.43;36.48;95791.81;5047710;28;20036;-55
2022/03/01 08:59:18;;;;;;;11.50;7.63;;;;;;;11.08;32.33;95788.91;5046663;28;20017;-60
2022/03/01 09:01:44;;;;;;;13.05;7.47;;;;;;;9.46;35.22;95762.50;5047729;28;20028;-61
2022/03/01 09:04:09;;;;;;;11.48;8.00;;;;;;;11.81;30.28;95715.25;5047766;28;20045;-61
2022/03/01 09:06:35;;;;;;;12.30;8.35;;;;;;;10.98;32.16;95770.47;5047540;28;20606;-62
2022/03/01 09:09:00;;;;;;;12.13;8.30;;;;;;;10.92;31.28;95720.94;5047765;28;20032;-71
2022/03/01 09:11:26;;;;;;;15.57;9.25;;;;;;;12.44;30.75;95784.88;5047387;28;20100;-68
2022/03/01 09:13:51;;;;;;;10.23;6.60;;;;;;;13.08;29.43;95784.56;5045465;28;20102;-61
2022/03/01 09:16:17;;;;;;;10.20;6.85;;;;;;;10.12;31.75;95760.19;5047978;28;20045;-64
2022/03/01 09:18:43;;;;;;;11.18;7.75;;;;;;;9.22;33.46;95791.06;5047785;28;20036;-61
2022/03/01 09:21:08;;;;;;;14.27;8.02;;;;;;;14.00;27.38;95774.56;5046864;28;20415;-59
2022/03/01 09:23:34;;;;;;;8.40;6.68;;;;;;;15.55;24.29;95768.50;5047518;28;20035;-61
2022/03/01 09:26:00;;;;;;;11.32;7.63;;;;;;;14.30;26.19;95740.63;5047785;28;20210;-62
2022/03/01 09:28:26;;;;;;;8.32;7.22;;;;;;;17.12;22.87;95782.19;5041081;28;20057;-61
2022/03/01 09:30:51;;;;;;;11.10;7.70;;;;;;;18.05;21.26;95718.38;5026722;28;20186;-59
2022/03/01 09:33:17;;;;;;;9.35;7.03;;;;;;;16.89;22.19;95756.97;5027906;28;20040;-60
2022/03/01 09:35:43;;;;;;;11.85;9.52;;;;;;;19.52;20.14;95777.50;5027639;28;20548;-62
2022/03/01 09:38:08;;;;;;;11.77;7.90;;;;;;;21.20;18.40;95775.56;5025574;28;20500;-62
2022/03/01 09:40:34;;;;;;;11.98;8.82;;;;;;;22.50;17.09;95727.25;5033751;28;20025;-61
2022/03/01 09:43:00;;;;;;;16.60;10.25;;;;;;;20.50;18.52;95783.72;5043739;28;20415;-58
2022/03/01 09:45:26;;;;;;;11.02;9.02;;;;;;;21.50;17.50;95782.38;5029592;28;20048;-60
2022/03/01 09:47:52;;;;;;;14.32;10.73;;;;;;;23.64;16.10;95748.06;5023033;28;20071;-59
2022/03/01 09:50:21;;;;;;;9.73;7.63;;;;;;;17.63;20.77;95792.94;5028679;28;20038;-61
2022/03/01 09:52:47;;;;;;;11.70;8.35;;;;;;;15.06;23.83;95798.72;5040483;28;20044;-61
2022/03/01 09:55:13;;;;;;;12.82;9.50;;;;;;;13.04;25.98;95763.22;5035446;28;20459;-61
2022/03/01 09:57:39;;;;;;;12.50;9.55;;;;;;;12.19;27.41;95785.47;5024558;28;20793;-66
2022/03/01 10:00:07;;;;;;;12.38;9.57;;;;;;;11.10;29.03;95766.44;5029826;28;20037;-61
2022/03/01 10:02:35;;;;;;;12.77;10.02;;;;;;;10.67;30.25;95804.78;5028175;28;20040;-59
2022/03/01 10:05:01;;;;;;;15.13;10.35;;;;;;;9.87;32.11;95770.00;5028379;28;20028;-62
2022/03/01 10:07:28;;;;;;;14.85;10.70;;;;;;;9.32;32.64;95782.00;5028586;28;20108;-59
2022/03/01 10:10:02;;;;;;;15.35;8.77;;;;;;;8.36;34.28;95769.06;5033475;28;20025;-61
2022/03/01 10:12:29;;;;;;;15.30;10.38;;;;;;;7.90;35.65;95806.03;5048008;28;20108;-61
2022/03/01 10:14:59;;;;;;;13.90;9.57;;;;;;;7.31;37.32;95806.59;5042512;28;20094;-61
2022/03/01 10:17:39;;;;;;;15.95;9.50;;;;;;;6.95;38.89;95820.72;5030526;28;20033;-59
2022/03/01 10:20:18;;;;;;;14.52;9.93;;;;;;;6.41;39.32;95773.91;5036621;28;20261;-59
2022/03/01 10:22:52;;;;;;;12.35;9.43;;;;;;;6.30;40.12;95822.09;5029756;28;20079;-59
2022/03/01 10:25:22;;;;;;;14.23;8.90;;;;;;;5.93;41.27;95810.47;5028035;28;20026;-61
2022/03/01 10:27:49;;;;;;;13.40;8.27;;;;;;;5.58;41.97;95804.72;5029811;28;20034;-66
2022/03/01 10:30:28;;;;;;;10.00;6.72;;;;;;;5.17;43.25;95801.69;5029697;28;20036;-60
2022/03/01 10:33:07;;;;;;;10.63;7.68;;;;;;;5.02;43.84;95809.78;5031073;28;20098;-62
2022/03/01 10:35:38;;;;;;;11.88;8.10;;;;;;;4.85;44.46;95805.16;5041552;28;20052;-61
2022/03/01 10:38:05;;;;;;;10.18;7.03;;;;;;;4.88;44.46;95805.91;5035258;28;20615;-58
2022/03/01 10:40:32;;;;;;;10.52;7.35;;;;;;;4.66;44.23;95764.81;5043208;28;20047;-61
2022/03/01 10:43:05;;;;;;;9.77;6.72;;;;;;;4.96;44.43;95803.16;5028103;28;20791;-60
2022/03/01 10:45:40;;;;;;;13.23;8.77;;;;;;;5.16;43.60;95797.44;5045936;28;20091;-60
2022/03/01 10:48:10;;;;;;;12.30;8.70;;;;;;;5.85;42.76;95795.38;5036257;28;20140;-59
2022/03/01 10:50:37;;;;;;;15.55;9.18;;;;;;;6.04;40.74;95706.00;5028012;28;20057;-65
2022/03/01 10:53:03;;;;;;;12.52;9.65;;;;;;;6.87;39.65;95753.50;5030025;28;20060;-59
2022/03/01 10:55:36;;;;;;;10.55;7.40;;;;;;;6.98;38.44;95712.06;5029007;28;20076;-61
2022/03/01 10:58:10;;;;;;;12.63;8.10;;;;;;;7.95;37.50;95769.88;5029375;28;20033;-60
2022/03/01 11:00:37;;;;;;;10.65;7.53;;;;;;;8.06;36.66;95770.25;5030279;28;20055;-63
2022/03/01 11:03:07;;;;;;;10.38;7.93;;;;;;;7.95;36.58;95725.38;5030034;28;20098;-61
2022/03/01 11:05:33;;;;;;;13.98;7.88;;;;;;;8.33;36.54;95776.88;5030147;28;20033;-59
2022/03/01 11:08:15;;;;;;;13.00;8.90;;;;;;;8.32;36.00;95759.81;5029858;28;20025;-60
2022/03/01 11:10:41;;;;;;;16.08;9.00;;;;;;;8.03;36.53;95746.44;5029389;28;20022;-62
2022/03/01 11:13:08;;;;;;;13.60;7.85;;;;;;;8.15;36.47;95758.78;5027722;28;20041;-61
2022/03/01 11:15:54;;;;;;;11.73;6.90;;;;;;;7.25;35.79;95758.94;5028441;28;20053;-62
2022/03/01 11:18:47;;;;;;;11.43;8.23;;;;;;;7.34;36.88;95750.03;5029763;28;20033;-62
2022/03/01 11:21:15;;;;;;;12.13;8.73;;;;;;;7.23;37.03;95716.25;5027977;28;20029;-60
2022/03/01 11:23:42;;;;;;;13.95;9.70;;;;;;;7.35;37.24;95749.97;5029034;28;20779;-60